createdAt,value
2022-08-05T00:01:29.071Z,95772.88
2022-08-05T00:03:56.984Z,95761.91
2022-08-05T00:06:32.302Z,95760.53
2022-08-05T00:09:00.795Z,95763.75
2022-08-05T00:11:34.581Z,95768.88
2022-08-05T00:14:02.402Z,95768.06
2022-08-05T00:16:52.050Z,95763.50
2022-08-05T00:19:23.318Z,95759.47
2022-08-05T00:21:51.543Z,95756.53
2022-08-05T00:24:24.197Z,95762.19
2022-08-05T00:26:52.844Z,95755.50
2022-08-05T00:29:22.531Z,95759.25
2022-08-05T00:32:10.883Z,95755.75
2022-08-05T00:34:55.860Z,95747.69
2022-08-05T00:37:23.111Z,95751.19
2022-08-05T00:39:57.962Z,95750.13
2022-08-05T00:42:39.833Z,95744.25
2022-08-05T00:45:11.629Z,95745.59
2022-08-05T00:47:56.706Z,95744.50
2022-08-05T00:50:25.170Z,95749.34
2022-08-05T00:52:53.340Z,95746.94
2022-08-05T00:55:21.707Z,95746.13
2022-08-05T00:57:58.338Z,95749.88
2022-08-05T01:00:27.874Z,95746.16
2022-08-05T01:02:55.704Z,95743.47
2022-08-05T01:05:22.746Z,95742.13
2022-08-05T01:08:29.702Z,95744.00
2022-08-05T01:10:54.142Z,95746.41
2022-08-05T01:13:59.160Z,95746.69
2022-08-05T01:16:44.263Z,95740.53
2022-08-05T01:20:02.184Z,95741.59
2022-08-05T01:22:47.556Z,95739.22
2022-08-05T01:25:50.268Z,95739.47
2022-08-05T01:28:27.757Z,95740.28
2022-08-05T01:31:20.217Z,95733.06
2022-08-05T01:33:55.410Z,95727.44
2022-08-05T01:36:28.447Z,95724.22
2022-08-05T01:39:00.182Z,95721.53
2022-08-05T01:41:32.628Z,95723.41
2022-08-05T01:44:01.952Z,95713.50
2022-08-05T01:46:41.415Z,95717.25
2022-08-05T01:49:22.932Z,95716.47
2022-08-05T01:51:55.947Z,95712.19
2022-08-05T01:54:27.180Z,95715.91
2022-08-05T01:58:18.881Z,95709.75
2022-08-05T01:59:47.276Z,95713.50
2022-08-05T02:02:16.045Z,95708.69
2022-08-05T02:04:46.293Z,95710.28
2022-08-05T02:07:22.194Z,95703.84
2022-08-05T02:09:50.994Z,95700.66
2022-08-05T02:12:32.983Z,95699.31
2022-08-05T02:15:12.717Z,95708.72
2022-08-05T02:18:28.136Z,95704.97
2022-08-05T02:20:44.174Z,95705.50
2022-08-05T02:23:14.836Z,95704.97
2022-08-05T02:25:49.179Z,95704.69
2022-08-05T02:28:29.250Z,95706.31
2022-08-05T02:31:07.590Z,95710.06
2022-08-05T02:33:39.631Z,95700.69
2022-08-05T02:36:13.555Z,95700.16
2022-08-05T02:38:53.426Z,95698.78
2022-08-05T02:41:22.875Z,95692.63
2022-08-05T02:44:06.098Z,95696.94
2022-08-05T02:46:53.356Z,95696.13
2022-08-05T02:49:36.983Z,95693.97
2022-08-05T02:52:08.633Z,95699.31
2022-08-05T02:54:41.510Z,95693.72
2022-08-05T02:58:09.385Z,95699.88
2022-08-05T03:00:01.339Z,95693.16
2022-08-05T03:02:33.008Z,95694.25
2022-08-05T03:05:01.491Z,95695.31
2022-08-05T03:08:01.898Z,95703.34
2022-08-05T03:10:21.748Z,95691.56
2022-08-05T03:12:53.654Z,95696.66
2022-08-05T03:15:23.507Z,95694.00
2022-08-05T03:17:53.987Z,95696.41
2022-08-05T03:20:24.428Z,95703.91
2022-08-05T03:22:52.757Z,95703.09
2022-08-05T03:25:32.956Z,95702.56
2022-08-05T03:28:08.625Z,95702.53
2022-08-05T03:30:36.736Z,95704.94
2022-08-05T03:33:07.521Z,95709.72
2022-08-05T03:35:41.256Z,95700.63
2022-08-05T03:38:14.387Z,95715.34
2022-08-05T03:40:45.070Z,95712.41
2022-08-05T03:44:08.996Z,95702.19
2022-08-05T03:46:02.984Z,95699.53
2022-08-05T03:48:30.657Z,95706.22
2022-08-05T03:52:49.027Z,95700.63
2022-08-05T03:55:53.091Z,95700.34
2022-08-05T03:57:16.467Z,95692.03
2022-08-05T03:59:54.727Z,95700.91
2022-08-05T04:02:38.934Z,95698.47
2022-08-05T04:05:12.993Z,95693.66
2022-08-05T04:07:57.602Z,95692.63
2022-08-05T04:10:31.972Z,95689.44
2022-08-05T04:13:00.689Z,95690.50
2022-08-05T04:15:33.282Z,95677.88
2022-08-05T04:18:07.073Z,95675.19
2022-08-05T04:20:34.625Z,95679.22
2022-08-05T04:23:01.658Z,95680.31
2022-08-05T04:25:57.714Z,95689.97
2022-08-05T04:28:15.229Z,95699.31
2022-08-05T04:30:44.494Z,95701.75
2022-08-05T04:33:12.787Z,95698.00
2022-08-05T04:36:15.648Z,95698.56
2022-08-05T04:38:39.143Z,95708.19
2022-08-05T04:41:06.149Z,95699.88
2022-08-05T04:43:34.220Z,95704.72
2022-08-05T04:46:01.110Z,95711.13
2022-08-05T04:48:28.495Z,95714.09
2022-08-05T04:51:03.648Z,95709.22
2022-08-05T04:53:38.630Z,95713.81
2022-08-05T04:56:32.275Z,95708.16
2022-08-05T04:58:54.790Z,95701.75
2022-08-05T05:02:06.372Z,95698.50
2022-08-05T05:04:08.382Z,95704.72
2022-08-05T05:06:44.556Z,95711.63
2022-08-05T05:09:17.426Z,95715.13
2022-08-05T05:11:54.042Z,95714.56
2022-08-05T05:14:31.365Z,95718.28
2022-08-05T05:17:00.247Z,95779.16
2022-08-05T05:19:36.466Z,95815.59
2022-08-05T05:22:22.696Z,95779.84
2022-08-05T05:24:58.035Z,95809.78
2022-08-05T05:27:41.517Z,95838.34
2022-08-05T05:30:29.275Z,95815.28
2022-08-05T05:33:00.971Z,95844.88
2022-08-05T05:35:37.969Z,95847.22
2022-08-05T05:38:13.778Z,95843.38
2022-08-05T05:40:49.656Z,95851.81
2022-08-05T05:43:27.629Z,95849.41
2022-08-05T05:46:13.646Z,95837.63
2022-08-05T05:48:44.165Z,95865.44
2022-08-05T05:51:15.299Z,95877.69
2022-08-05T05:53:54.343Z,95877.38
2022-08-05T05:56:32.750Z,95883.50
2022-08-05T05:59:06.654Z,95897.03
2022-08-05T06:01:39.750Z,95904.81
2022-08-05T06:04:12.710Z,95894.34
2022-08-05T06:06:47.360Z,95901.50
2022-08-05T06:09:17.291Z,95900.91
2022-08-05T06:12:01.675Z,95900.72
2022-08-05T06:14:33.340Z,95903.09
2022-08-05T06:17:01.906Z,95913.13
2022-08-05T06:19:57.093Z,95901.88
2022-08-05T06:22:35.889Z,95893.47
2022-08-05T06:25:24.277Z,95901.50
2022-08-05T06:28:10.783Z,95891.88
2022-08-05T06:30:38.801Z,95894.19
2022-08-05T06:33:09.862Z,95892.69
2022-08-05T06:36:07.576Z,95888.47
2022-08-05T06:38:36.223Z,95892.06
2022-08-05T06:41:04.968Z,95883.50
2022-08-05T06:43:58.189Z,95889.44
2022-08-05T06:46:18.944Z,95903.69
2022-08-05T06:48:55.664Z,95903.25
2022-08-05T06:51:29.494Z,95897.91
2022-08-05T06:53:59.304Z,95903.03
2022-08-05T06:56:27.809Z,95909.78
2022-08-05T06:58:55.661Z,95911.47
2022-08-05T07:01:22.875Z,95937.94
2022-08-05T07:03:49.932Z,95946.19
2022-08-05T07:06:20.632Z,95952.81
2022-08-05T07:08:51.681Z,95941.09
2022-08-05T07:11:25.347Z,95954.56
2022-08-05T07:14:20.010Z,95953.22
2022-08-05T07:18:00.693Z,95956.34
2022-08-05T07:20:29.854Z,95967.59
2022-08-05T07:22:28.614Z,95972.97
2022-08-05T07:25:23.300Z,95975.69
2022-08-05T07:27:57.087Z,95968.81
2022-08-05T07:30:32.057Z,95972.44
2022-08-05T07:33:00.939Z,95979.44
2022-08-05T07:36:02.762Z,95973.81
2022-08-05T07:38:33.677Z,95981.38
2022-08-05T07:42:07.317Z,95978.19
2022-08-05T07:43:51.235Z,95955.41
2022-08-05T07:46:23.532Z,95931.56
2022-08-05T07:49:01.397Z,95936.13
2022-08-05T07:51:40.362Z,95965.88
2022-08-05T07:54:09.624Z,95966.38
2022-08-05T07:57:01.237Z,95963.13
2022-08-05T07:59:39.047Z,95979.97
2022-08-05T08:02:15.291Z,95980.13
2022-08-05T08:04:43.143Z,95978.09
2022-08-05T08:07:12.370Z,95965.88
2022-08-05T08:09:39.137Z,95962.25
2022-08-05T08:12:15.932Z,95973.31
2022-08-05T08:14:47.192Z,95966.59
2022-08-05T08:17:16.220Z,95964.47
2022-08-05T08:20:22.309Z,95976.53
2022-08-05T08:22:32.401Z,95983.22
2022-08-05T08:25:03.374Z,95972.22
2022-08-05T08:27:35.651Z,95981.84
2022-08-05T08:30:30.188Z,95982.03
2022-08-05T08:33:01.709Z,95984.41
2022-08-05T08:35:35.036Z,95983.69
2022-08-05T08:38:11.604Z,95979.56
2022-08-05T08:40:48.934Z,95984.31
2022-08-05T08:45:16.519Z,95989.03
2022-08-05T08:46:09.898Z,95998.56
2022-08-05T08:48:59.694Z,95993.00
2022-08-05T08:52:03.623Z,95988.75
2022-08-05T08:54:18.379Z,95997.06
2022-08-05T08:56:45.144Z,95984.03
2022-08-05T08:59:19.381Z,95972.59
2022-08-05T09:01:57.338Z,95979.66
2022-08-05T09:04:30.335Z,95983.78
2022-08-05T09:06:58.446Z,95981.88
2022-08-05T09:09:34.554Z,95973.63
2022-08-05T09:12:14.409Z,95971.25
2022-08-05T09:14:58.065Z,95959.50
2022-08-05T09:17:42.618Z,95965.81
2022-08-05T09:20:13.263Z,95976.16
2022-08-05T09:23:19.137Z,95967.53
2022-08-05T09:26:02.703Z,95953.41
2022-08-05T09:28:33.427Z,95958.59
2022-08-05T09:31:23.330Z,95958.09
2022-08-05T09:33:59.286Z,95945.47
2022-08-05T09:36:55.279Z,95962.09
2022-08-05T09:39:41.550Z,95969.41
2022-08-05T09:42:24.048Z,95967.81
2022-08-05T09:44:57.505Z,95968.63
2022-08-05T09:47:36.540Z,95964.31
2022-08-05T09:50:37.586Z,95956.97
2022-08-05T09:53:05.059Z,95955.53
2022-08-05T09:55:56.699Z,95957.84
2022-08-05T09:58:23.745Z,95948.31
2022-08-05T10:01:02.216Z,95949.41
2022-08-05T10:03:58.915Z,95953.03
2022-08-05T10:06:28.075Z,95951.50
2022-08-05T10:08:55.785Z,95958.66
2022-08-05T10:11:23.004Z,95965.25
2022-08-05T10:13:49.826Z,95970.72
2022-08-05T10:16:41.721Z,95965.16
2022-08-05T10:19:23.462Z,95954.69
2022-08-05T10:21:58.657Z,95944.00
2022-08-05T10:24:27.105Z,95941.22
2022-08-05T10:27:00.304Z,95945.31
2022-08-05T10:30:49.530Z,95944.59
2022-08-05T10:32:52.645Z,95941.81
2022-08-05T10:35:03.959Z,95949.84
2022-08-05T10:37:41.368Z,95950.16
2022-08-05T10:40:22.343Z,95939.88
2022-08-05T10:43:00.433Z,95944.75
2022-08-05T10:45:30.695Z,95947.81
2022-08-05T10:48:30.629Z,95940.91
2022-08-05T10:51:21.975Z,95937.56
2022-08-05T10:53:58.574Z,95941.19
2022-08-05T10:56:53.302Z,95932.19
2022-08-05T11:00:04.429Z,95935.41
2022-08-05T11:02:34.943Z,95932.81
2022-08-05T11:05:09.472Z,95938.25
2022-08-05T11:08:12.739Z,95924.47
2022-08-05T11:10:50.278Z,95933.41
2022-08-05T11:13:55.069Z,95929.63
2022-08-05T11:16:47.491Z,95932.22
2022-08-05T11:20:17.583Z,95934.69
2022-08-05T11:22:49.729Z,95938.53
2022-08-05T11:26:04.903Z,95928.56
2022-08-05T11:28:35.873Z,95925.16
2022-08-05T11:31:06.529Z,95929.38
2022-08-05T11:33:48.210Z,95924.31
2022-08-05T11:36:34.669Z,95920.78
2022-08-05T11:39:08.799Z,95926.56
2022-08-05T11:42:01.232Z,95927.06
2022-08-05T11:44:52.966Z,95921.22
2022-08-05T11:47:49.831Z,95920.41
2022-08-05T11:50:14.447Z,95931.81
2022-08-05T11:52:48.838Z,95940.53
2022-08-05T11:55:17.065Z,95934.28
2022-08-05T11:58:10.416Z,95934.53
2022-08-05T12:00:37.984Z,95930.78
2022-08-05T12:03:28.548Z,95918.00
2022-08-05T12:06:03.107Z,95905.47
2022-08-05T12:08:33.791Z,95913.31
2022-08-05T12:11:05.705Z,95918.69
2022-08-05T12:13:48.403Z,95915.72
2022-08-05T12:16:20.459Z,95908.50
2022-08-05T12:18:57.682Z,95909.09
2022-08-05T12:21:30.068Z,95902.28
2022-08-05T12:24:08.922Z,95899.09
2022-08-05T12:26:44.839Z,95909.31
2022-08-05T12:29:17.904Z,95903.88
2022-08-05T12:31:53.953Z,95912.16
2022-08-05T12:34:28.447Z,95914.72
2022-08-05T12:36:58.812Z,95923.28
2022-08-05T12:39:27.958Z,95921.22
2022-08-05T12:42:02.429Z,95918.44
2022-08-05T12:44:34.046Z,95917.75
2022-08-05T12:47:02.213Z,95922.25
2022-08-05T12:50:03.202Z,95919.09
2022-08-05T12:52:38.502Z,95902.50
2022-08-05T12:55:25.488Z,95900.25
2022-08-05T12:58:51.067Z,95895.50
2022-08-05T13:02:03.018Z,95890.63
2022-08-05T13:03:32.610Z,95891.00
2022-08-05T13:06:01.313Z,95890.19
2022-08-05T13:08:32.324Z,95888.59
2022-08-05T13:11:01.301Z,95892.53
2022-08-05T13:14:06.053Z,95898.47
2022-08-05T13:16:17.402Z,95887.38
2022-08-05T13:18:58.865Z,95882.47
2022-08-05T13:21:37.870Z,95888.38
2022-08-05T13:24:27.760Z,95891.88
2022-08-05T13:27:04.137Z,95879.84
2022-08-05T13:29:37.547Z,95886.34
2022-08-05T13:32:05.555Z,95887.31
2022-08-05T13:34:32.979Z,95885.31
2022-08-05T13:37:00.494Z,95877.78
2022-08-05T13:40:16.783Z,95879.00
2022-08-05T13:42:15.270Z,95871.13
2022-08-05T13:44:46.309Z,95870.91
2022-08-05T13:47:36.006Z,95863.47
2022-08-05T13:50:09.548Z,95864.75
2022-08-05T13:52:41.251Z,95862.84
2022-08-05T13:55:09.891Z,95859.50
2022-08-05T13:57:50.545Z,95867.63
2022-08-05T14:00:19.744Z,95859.16
2022-08-05T14:02:54.242Z,95853.25
2022-08-05T14:05:29.699Z,95857.69
2022-08-05T14:08:10.934Z,95856.59
2022-08-05T14:10:47.702Z,95859.53
2022-08-05T14:13:15.278Z,95858.06
2022-08-05T14:16:05.574Z,95861.88
2022-08-05T14:18:29.322Z,95860.94
2022-08-05T14:20:56.040Z,95854.94
2022-08-05T14:23:25.440Z,95854.44
2022-08-05T14:25:58.822Z,95864.97
2022-08-05T14:28:29.368Z,95852.81
2022-08-05T14:31:00.790Z,95864.13
2022-08-05T14:33:57.067Z,95860.53
2022-08-05T14:36:21.317Z,95871.94
2022-08-05T14:38:50.058Z,95867.03
2022-08-05T14:41:18.536Z,95861.44
2022-08-05T14:43:58.953Z,95872.66
2022-08-05T14:46:30.602Z,95873.25
2022-08-05T14:48:59.697Z,95874.56
2022-08-05T14:54:27.665Z,95875.84
2022-08-05T14:56:56.503Z,95865.34
2022-08-05T14:59:23.548Z,95878.56
2022-08-05T15:01:50.514Z,95876.06
2022-08-05T15:04:20.546Z,95875.34
2022-08-05T15:06:51.801Z,95878.25
2022-08-05T15:09:51.495Z,95876.16
2022-08-05T15:12:07.085Z,95885.94
2022-08-05T15:14:48.247Z,95886.75
2022-08-05T15:17:47.674Z,95883.63
2022-08-05T15:20:05.041Z,95893.25
2022-08-05T15:22:31.751Z,95895.84
2022-08-05T15:24:59.331Z,95899.44
2022-08-05T15:27:26.398Z,95901.41
2022-08-05T15:29:59.289Z,95895.31
2022-08-05T15:32:26.690Z,95899.91
2022-08-05T15:34:55.376Z,95899.81
2022-08-05T15:38:31.935Z,95912.88
2022-08-05T15:40:59.836Z,95910.56
2022-08-05T15:43:07.950Z,95909.34
2022-08-05T15:45:39.009Z,95917.91
2022-08-05T15:48:06.852Z,95918.50
2022-08-05T15:50:33.931Z,95926.78
2022-08-05T15:53:06.354Z,95930.81
2022-08-05T15:56:03.920Z,95935.28
2022-08-05T15:58:23.239Z,95938.56
2022-08-05T16:01:04.319Z,95941.47
2022-08-05T16:03:40.975Z,95938.19
2022-08-05T16:06:09.326Z,95932.72
2022-08-05T16:08:38.375Z,95941.59
2022-08-05T16:11:05.284Z,95935.66
2022-08-05T16:13:34.726Z,95936.91
2022-08-05T16:16:04.765Z,95950.19
2022-08-05T16:18:33.019Z,95949.53
2022-08-05T16:21:04.327Z,95955.25
2022-08-05T16:23:33.102Z,95954.31
2022-08-05T16:26:19.165Z,95951.47
2022-08-05T16:28:53.034Z,95958.00
2022-08-05T16:31:21.333Z,95959.88
2022-08-05T16:33:48.409Z,95958.22
2022-08-05T16:36:20.160Z,95971.69
2022-08-05T16:38:54.757Z,95969.34
2022-08-05T16:42:14.655Z,95976.00
2022-08-05T16:44:13.830Z,95981.09
2022-08-05T16:46:56.109Z,95989.81
2022-08-05T16:49:23.614Z,95995.81
2022-08-05T16:51:54.777Z,96002.34
2022-08-05T16:54:27.529Z,95996.69
2022-08-05T16:56:58.937Z,96006.13
2022-08-05T16:59:27.683Z,96008.16
2022-08-05T17:01:55.694Z,96022.50
2022-08-05T17:04:28.184Z,96020.72
2022-08-05T17:07:01.863Z,96019.69
2022-08-05T17:09:38.957Z,96018.94
2022-08-05T17:12:17.885Z,96041.03
2022-08-05T17:14:49.697Z,96050.63
2022-08-05T17:17:16.537Z,96063.69
2022-08-05T17:19:46.437Z,96063.50
2022-08-05T17:22:24.409Z,96087.66
2022-08-05T17:24:57.807Z,96095.94
2022-08-05T17:27:27.226Z,96109.03
2022-08-05T17:30:02.674Z,96109.78
2022-08-05T17:32:30.180Z,96122.56
2022-08-05T17:35:00.569Z,96118.13
2022-08-05T17:37:41.232Z,96137.84
2022-08-05T17:40:14.952Z,96146.78
2022-08-05T17:42:49.707Z,96151.09
2022-08-05T17:45:29.488Z,96172.69
2022-08-05T17:47:56.489Z,96186.44
2022-08-05T17:50:28.149Z,96186.59
2022-08-05T17:53:01.533Z,96199.16
2022-08-05T17:55:38.332Z,96200.25
2022-08-05T17:58:09.586Z,96205.88
2022-08-05T18:00:44.251Z,96218.28
2022-08-05T18:03:12.141Z,96232.31
2022-08-05T18:05:55.298Z,96229.34
2022-08-05T18:08:28.359Z,96241.13
2022-08-05T18:10:55.036Z,96258.53
2022-08-05T18:13:21.790Z,96255.13
2022-08-05T18:15:52.499Z,96258.50
2022-08-05T18:18:21.311Z,96261.69
2022-08-05T18:20:53.211Z,96263.94
2022-08-05T18:23:21.909Z,96264.03
2022-08-05T18:25:57.378Z,96279.38
2022-08-05T18:28:28.454Z,96285.66
2022-08-05T18:30:55.234Z,96290.16
2022-08-05T18:33:23.094Z,96298.72
2022-08-05T18:36:03.363Z,96306.44
2022-08-05T18:38:35.973Z,96302.03
2022-08-05T18:41:55.277Z,96314.44
2022-08-05T18:43:50.632Z,96325.19
2022-08-05T18:46:19.842Z,96336.59
2022-08-05T18:48:52.494Z,96335.34
2022-08-05T18:52:06.598Z,96329.47
2022-08-05T18:54:27.559Z,96330.53
2022-08-05T18:56:57.583Z,96340.59
2022-08-05T18:59:43.058Z,96329.72
2022-08-05T19:02:28.323Z,96348.63
2022-08-05T19:05:02.193Z,96343.19
2022-08-05T19:07:46.597Z,96355.94
2022-08-05T19:10:19.073Z,96361.13
2022-08-05T19:12:54.508Z,96353.97
2022-08-05T19:15:57.788Z,96354.75
2022-08-05T19:18:10.442Z,96362.41
2022-08-05T19:20:41.592Z,96364.25
2022-08-05T19:24:04.235Z,96361.03
2022-08-05T19:26:01.848Z,96361.34
2022-08-05T19:28:30.914Z,96366.69
2022-08-05T19:30:57.909Z,96360.91
2022-08-05T19:33:35.437Z,96363.19
2022-08-05T19:36:06.597Z,96367.38
2022-08-05T19:38:35.951Z,96380.25
2022-08-05T19:41:07.317Z,96387.78
2022-08-05T19:44:06.491Z,96387.56
2022-08-05T19:46:29.406Z,96381.25
2022-08-05T19:49:03.572Z,96384.38
2022-08-05T19:52:09.061Z,96382.63
2022-08-05T19:54:29.476Z,96381.84
2022-08-05T19:56:59.884Z,96384.19
2022-08-05T19:59:56.037Z,96384.28
2022-08-05T20:02:17.563Z,96389.72
2022-08-05T20:04:46.240Z,96399.41
2022-08-05T20:07:15.466Z,96390.69
2022-08-05T20:09:54.421Z,96395.09
2022-08-05T20:12:24.413Z,96407.38
2022-08-05T20:14:52.939Z,96405.38
2022-08-05T20:17:23.257Z,96409.34
2022-08-05T20:19:51.097Z,96416.03
2022-08-05T20:22:25.077Z,96415.09
2022-08-05T20:24:55.292Z,96414.31
2022-08-05T20:27:26.926Z,96408.66
2022-08-05T20:29:57.655Z,96416.50
2022-08-05T20:32:25.435Z,96419.38
2022-08-05T20:34:52.232Z,96418.94
2022-08-05T20:38:04.658Z,96425.88
2022-08-05T20:40:07.064Z,96443.03
2022-08-05T20:42:34.763Z,96466.25
2022-08-05T20:45:03.044Z,96474.91
2022-08-05T20:47:32.017Z,96482.44
2022-08-05T20:49:59.769Z,96481.84
2022-08-05T20:52:29.514Z,96476.31
2022-08-05T20:55:54.197Z,96464.31
2022-08-05T20:57:44.831Z,96456.03
2022-08-05T21:00:35.073Z,96464.88
2022-08-05T21:03:04.857Z,96460.19
2022-08-05T21:05:48.214Z,96460.25
2022-08-05T21:08:47.362Z,96461.72
2022-08-05T21:12:08.866Z,96470.56
2022-08-05T21:14:02.673Z,96475.78
2022-08-05T21:16:30.774Z,96476.81
2022-08-05T21:19:01.888Z,96471.38
2022-08-05T21:21:39.206Z,96489.78
2022-08-05T21:24:12.998Z,96505.38
2022-08-05T21:26:41.224Z,96531.41
2022-08-05T21:29:10.083Z,96547.69
2022-08-05T21:31:41.283Z,96591.31
2022-08-05T21:34:10.422Z,96575.84
2022-08-05T21:36:38.746Z,96500.19
2022-08-05T21:39:05.670Z,96508.34
2022-08-05T21:41:36.318Z,96519.94
2022-08-05T21:44:05.053Z,96500.28
2022-08-05T21:46:34.329Z,96481.19
2022-08-05T21:49:04.572Z,96465.97
2022-08-05T21:52:22.886Z,96451.25
2022-08-05T21:54:27.797Z,96456.31
2022-08-05T21:57:15.444Z,96475.19
2022-08-05T22:00:02.137Z,96502.84
2022-08-05T22:02:41.732Z,96507.72
2022-08-05T22:05:11.775Z,96548.63
2022-08-05T22:08:01.981Z,96564.88
2022-08-05T22:10:27.564Z,96577.63
2022-08-05T22:12:57.274Z,96595.50
2022-08-05T22:16:04.680Z,96593.72
2022-08-05T22:18:12.323Z,96589.34
2022-08-05T22:20:41.357Z,96577.53
2022-08-05T22:24:02.056Z,96552.94
2022-08-05T22:26:33.730Z,96545.16
2022-08-05T22:29:00.474Z,96562.16
2022-08-05T22:31:29.907Z,96557.16
2022-08-05T22:34:01.245Z,96546.94
2022-08-05T22:36:29.237Z,96560.16
2022-08-05T22:38:56.446Z,96562.47
2022-08-05T22:42:04.266Z,96565.31
2022-08-05T22:44:11.820Z,96559.41
2022-08-05T22:46:40.659Z,96569.66
2022-08-05T22:49:46.162Z,96554.16
2022-08-05T22:52:04.288Z,96549.53
2022-08-05T22:54:33.643Z,96546.97
2022-08-05T22:57:00.405Z,96551.09
2022-08-05T22:59:45.218Z,96573.50
2022-08-05T23:02:28.750Z,96578.00
2022-08-05T23:04:55.855Z,96603.69
2022-08-05T23:07:22.588Z,96608.00
2022-08-05T23:09:57.728Z,96603.28
2022-08-05T23:12:32.732Z,96591.25
2022-08-05T23:15:03.421Z,96595.91
2022-08-05T23:17:34.450Z,96583.63
2022-08-05T23:20:10.425Z,96571.13
2022-08-05T23:22:43.885Z,96567.94
2022-08-05T23:25:17.564Z,96583.47
2022-08-05T23:28:02.443Z,96608.13
2022-08-05T23:30:31.302Z,96630.56
2022-08-05T23:32:58.866Z,96643.66
2022-08-05T23:35:28.429Z,96637.47
2022-08-05T23:38:01.086Z,96615.13
2022-08-05T23:40:27.777Z,96588.97
2022-08-05T23:42:54.666Z,96587.88
2022-08-05T23:45:23.770Z,96546.81
2022-08-05T23:47:53.871Z,96523.94
2022-08-05T23:50:26.529Z,96544.03
2022-08-05T23:52:55.386Z,96548.94
2022-08-05T23:55:22.516Z,96576.31
2022-08-05T23:57:57.853Z,96599.81
